Larkspur, CO

11:12 AM MST on January 31, 2015 (GMT -0700)
Centennial | Change Station
CLOSE
Current Station
Airport
Location: Denver Centennial,
Elevation: 5883 ft
Nearby Weather Stations

Elev 5883 ft 39.56 °N, 104.85 °W | Updated 19 minutes ago

Overcast
Overcast
35 °F
Feels Like 30 °F
N
6
Wind Variable Wind from North

Today
High -- | Low -- °F
--% Chance of Precip.
Yesterday
High -- | Low -- °F
Precip. -- in
7:07 AM 5:19 PM
Waxing Gibbous, 91% visible
Pressure 29.91 in
Visibility 10.0 miles
Clouds Few 4000 ft
Mostly Cloudy 8000 ft
Mostly Cloudy 14000 ft
Mostly Cloudy 20000 ft
Windchill 30 °F
Dew Point 26 °F
Humidity 70%
Rainfall 0.00 in
Snow Depth Not available.
UV 2 out of 12
Pollen .30 out of 12
Air Quality Not available.
Flu Activity Not available.
METAR KAPA 311753Z 01005KT 10SM FEW040 BKN080 BKN140 BKN200 02/M03 A2988 RMK AO2 SLP129 T00171033 10017 21028 56008

More Conditions Fewer Conditions

Pressure 29.91 in
Visibility 10.0 miles
Clouds Few 4000 ft
Mostly Cloudy 8000 ft
Mostly Cloudy 14000 ft
Mostly Cloudy 20000 ft
Windchill 30 °F
Dew Point 26 °F
Humidity 70%
Rainfall 0.00 in
Snow Depth Not available.
UV 2 out of 12
Pollen .30 out of 12
Air Quality Not available.
Flu Activity Not available.
METAR KAPA 311753Z 01005KT 10SM FEW040 BKN080 BKN140 BKN200 02/M03 A2988 RMK AO2 SLP129 T00171033 10017 21028 56008

More Conditions Fewer Conditions

10-Day Weather Forecast

Almanac

Astronomy

Jan. 31, 2015 Rise Set
Actual Time
Civil Twilight
Nautical Twilight
Astronomical Twilight
Moon
Length of Visible Light
Length of Day
Tomorrow will be .
, % of the Moon is Illuminated

Today's Extremes

State Highs State Lows

Community

WunderPhotos

Upload Photos

1,792,141 photos uploaded!

WunderBlogs® & News

Nearby

Air Quality

  Air Quality AQ Index Pollutant
Not available.

Snow Depth

Station Depth Elevation

Earthquake Activity

City Distance Mag. Time & Date
Minimum magnitude displayed is 2.5.

Coastal Water Temperatures

Place Temperature

Nearby Weather Stations